Webcam

2019/03/23 13:20 EBBR 231320Z VRB01KT 6000 FEW017 BKN035 11/07 Q1031 NOSIG

Webcam

--- Refresh now ---